Terminal Aerodrome Forecast
Issued by NWS

Home | Current Version | Previous Version | Text Only | Print | Product List | Glossary On
Versions: 1 2 3 4 5 6 7 8 9 10 11 12
237
FTUS42 KTAE 102320
TAFVLD
TAF
KVLD 102320Z 1100/1124 VRB04KT P6SM SKC
     FM111500 20005G12KT P6SM SKC=

USA.gov is the U.S. government's official web portal to all federal, state and local government web resources and services.